sensor_id;sensor_type;location;lat;lon;timestamp;P1;durP1;ratioP1;P2;durP2;ratioP2
34405;SDS011;20658;45.630;8.886;2023-11-21T00:00:54;58.72;;;51.38;;
34405;SDS011;20658;45.630;8.886;2023-11-21T00:03:28;63.25;;;50.30;;
34405;SDS011;20658;45.630;8.886;2023-11-21T00:06:01;62.85;;;50.08;;
34405;SDS011;20658;45.630;8.886;2023-11-21T00:08:35;69.63;;;51.88;;
34405;SDS011;20658;45.630;8.886;2023-11-21T00:11:10;63.72;;;50.78;;
34405;SDS011;20658;45.630;8.886;2023-11-21T00:13:43;65.22;;;51.20;;
34405;SDS011;20658;45.630;8.886;2023-11-21T00:16:16;63.35;;;49.75;;
34405;SDS011;20658;45.630;8.886;2023-11-21T00:18:50;67.00;;;49.00;;
34405;SDS011;20658;45.630;8.886;2023-11-21T00:21:23;67.97;;;51.85;;
34405;SDS011;20658;45.630;8.886;2023-11-21T00:23:57;66.07;;;51.10;;
34405;SDS011;20658;45.630;8.886;2023-11-21T00:26:31;60.75;;;51.40;;
34405;SDS011;20658;45.630;8.886;2023-11-21T00:29:08;68.05;;;52.75;;
34405;SDS011;20658;45.630;8.886;2023-11-21T00:31:42;66.03;;;50.72;;
34405;SDS011;20658;45.630;8.886;2023-11-21T00:34:15;67.53;;;50.15;;
34405;SDS011;20658;45.630;8.886;2023-11-21T00:36:49;72.93;;;53.15;;
34405;SDS011;20658;45.630;8.886;2023-11-21T00:39:22;76.85;;;53.47;;
34405;SDS011;20658;45.630;8.886;2023-11-21T00:41:58;64.93;;;55.78;;
34405;SDS011;20658;45.630;8.886;2023-11-21T00:44:26;70.03;;;51.65;;
34405;SDS011;20658;45.630;8.886;2023-11-21T00:46:55;70.38;;;51.25;;
34405;SDS011;20658;45.630;8.886;2023-11-21T00:49:28;73.05;;;51.10;;
34405;SDS011;20658;45.630;8.886;2023-11-21T00:52:01;67.20;;;52.58;;
34405;SDS011;20658;45.630;8.886;2023-11-21T00:54:35;71.68;;;52.20;;
34405;SDS011;20658;45.630;8.886;2023-11-21T00:57:10;64.93;;;53.05;;
34405;SDS011;20658;45.630;8.886;2023-11-21T00:59:43;71.30;;;51.95;;
34405;SDS011;20658;45.630;8.886;2023-11-21T01:02:17;69.80;;;52.10;;
34405;SDS011;20658;45.630;8.886;2023-11-21T01:04:51;64.10;;;49.53;;
34405;SDS011;20658;45.630;8.886;2023-11-21T01:07:24;69.20;;;51.63;;
34405;SDS011;20658;45.630;8.886;2023-11-21T01:09:58;64.82;;;50.33;;
34405;SDS011;20658;45.630;8.886;2023-11-21T01:12:34;67.22;;;49.33;;
34405;SDS011;20658;45.630;8.886;2023-11-21T01:15:08;61.83;;;50.08;;
34405;SDS011;20658;45.630;8.886;2023-11-21T01:17:43;66.93;;;48.70;;
34405;SDS011;20658;45.630;8.886;2023-11-21T01:20:16;66.85;;;51.80;;
34405;SDS011;20658;45.630;8.886;2023-11-21T01:22:50;64.72;;;49.03;;
34405;SDS011;20658;45.630;8.886;2023-11-21T01:25:26;69.20;;;52.10;;
34405;SDS011;20658;45.630;8.886;2023-11-21T01:28:01;67.05;;;49.53;;
34405;SDS011;20658;45.630;8.886;2023-11-21T01:30:35;63.20;;;50.55;;
34405;SDS011;20658;45.630;8.886;2023-11-21T01:33:08;66.82;;;50.47;;
34405;SDS011;20658;45.630;8.886;2023-11-21T01:35:42;70.20;;;53.28;;
34405;SDS011;20658;45.630;8.886;2023-11-21T01:38:18;69.28;;;51.40;;
34405;SDS011;20658;45.630;8.886;2023-11-21T01:40:51;65.85;;;51.83;;
34405;SDS011;20658;45.630;8.886;2023-11-21T01:43:26;65.20;;;51.05;;
34405;SDS011;20658;45.630;8.886;2023-11-21T01:45:59;64.38;;;51.20;;
34405;SDS011;20658;45.630;8.886;2023-11-21T01:48:28;64.97;;;50.88;;
34405;SDS011;20658;45.630;8.886;2023-11-21T01:50:56;58.83;;;48.22;;
34405;SDS011;20658;45.630;8.886;2023-11-21T01:53:30;64.95;;;50.08;;
34405;SDS011;20658;45.630;8.886;2023-11-21T01:56:03;85.50;;;52.30;;
34405;SDS011;20658;45.630;8.886;2023-11-21T01:58:40;64.15;;;50.08;;
34405;SDS011;20658;45.630;8.886;2023-11-21T02:01:09;71.95;;;50.70;;
34405;SDS011;20658;45.630;8.886;2023-11-21T02:03:38;73.18;;;53.03;;
34405;SDS011;20658;45.630;8.886;2023-11-21T02:06:07;66.07;;;51.85;;
34405;SDS011;20658;45.630;8.886;2023-11-21T02:08:36;68.65;;;54.67;;
34405;SDS011;20658;45.630;8.886;2023-11-21T02:11:11;71.72;;;53.90;;
34405;SDS011;20658;45.630;8.886;2023-11-21T02:13:41;67.75;;;52.08;;
34405;SDS011;20658;45.630;8.886;2023-11-21T02:16:17;67.93;;;52.67;;
34405;SDS011;20658;45.630;8.886;2023-11-21T02:18:45;72.78;;;52.05;;
34405;SDS011;20658;45.630;8.886;2023-11-21T02:21:19;67.80;;;52.50;;
34405;SDS011;20658;45.630;8.886;2023-11-21T02:23:50;69.30;;;54.20;;
34405;SDS011;20658;45.630;8.886;2023-11-21T02:26:18;69.63;;;51.72;;
34405;SDS011;20658;45.630;8.886;2023-11-21T02:28:46;69.47;;;52.35;;
34405;SDS011;20658;45.630;8.886;2023-11-21T02:31:15;74.40;;;55.08;;
34405;SDS011;20658;45.630;8.886;2023-11-21T02:33:48;71.53;;;56.00;;
34405;SDS011;20658;45.630;8.886;2023-11-21T02:36:21;70.45;;;54.58;;
34405;SDS011;20658;45.630;8.886;2023-11-21T02:38:56;71.30;;;53.85;;
34405;SDS011;20658;45.630;8.886;2023-11-21T02:41:29;75.53;;;55.47;;
34405;SDS011;20658;45.630;8.886;2023-11-21T02:44:03;71.38;;;53.65;;
34405;SDS011;20658;45.630;8.886;2023-11-21T02:46:37;70.47;;;54.33;;
34405;SDS011;20658;45.630;8.886;2023-11-21T02:49:11;75.05;;;52.95;;
34405;SDS011;20658;45.630;8.886;2023-11-21T02:51:45;67.30;;;53.85;;
34405;SDS011;20658;45.630;8.886;2023-11-21T02:54:19;72.95;;;55.55;;
34405;SDS011;20658;45.630;8.886;2023-11-21T02:56:53;73.60;;;53.30;;
34405;SDS011;20658;45.630;8.886;2023-11-21T02:59:26;68.28;;;54.28;;
34405;SDS011;20658;45.630;8.886;2023-11-21T03:01:54;71.03;;;54.08;;
34405;SDS011;20658;45.630;8.886;2023-11-21T03:04:28;65.20;;;54.35;;
34405;SDS011;20658;45.630;8.886;2023-11-21T03:07:03;67.97;;;54.40;;
34405;SDS011;20658;45.630;8.886;2023-11-21T03:09:38;68.88;;;53.78;;
34405;SDS011;20658;45.630;8.886;2023-11-21T03:12:11;67.03;;;51.13;;
34405;SDS011;20658;45.630;8.886;2023-11-21T03:14:45;71.95;;;53.08;;
34405;SDS011;20658;45.630;8.886;2023-11-21T03:17:14;69.95;;;53.35;;
34405;SDS011;20658;45.630;8.886;2023-11-21T03:19:42;70.40;;;52.65;;
34405;SDS011;20658;45.630;8.886;2023-11-21T03:22:11;67.40;;;50.40;;
34405;SDS011;20658;45.630;8.886;2023-11-21T03:24:41;71.10;;;51.67;;
34405;SDS011;20658;45.630;8.886;2023-11-21T03:27:14;72.90;;;51.83;;
34405;SDS011;20658;45.630;8.886;2023-11-21T03:29:48;64.90;;;50.35;;
34405;SDS011;20658;45.630;8.886;2023-11-21T03:32:22;58.17;;;47.60;;
34405;SDS011;20658;45.630;8.886;2023-11-21T03:34:57;65.30;;;50.72;;
34405;SDS011;20658;45.630;8.886;2023-11-21T03:37:33;62.92;;;49.88;;
34405;SDS011;20658;45.630;8.886;2023-11-21T03:40:08;72.38;;;50.17;;
34405;SDS011;20658;45.630;8.886;2023-11-21T03:42:43;65.97;;;51.05;;
34405;SDS011;20658;45.630;8.886;2023-11-21T03:45:19;67.85;;;52.58;;
34405;SDS011;20658;45.630;8.886;2023-11-21T03:47:53;66.82;;;51.03;;
34405;SDS011;20658;45.630;8.886;2023-11-21T03:50:27;72.68;;;51.22;;
34405;SDS011;20658;45.630;8.886;2023-11-21T03:53:01;65.45;;;48.55;;
34405;SDS011;20658;45.630;8.886;2023-11-21T03:55:36;65.68;;;51.28;;
34405;SDS011;20658;45.630;8.886;2023-11-21T03:58:10;71.20;;;51.13;;
34405;SDS011;20658;45.630;8.886;2023-11-21T04:00:45;67.72;;;53.90;;
34405;SDS011;20658;45.630;8.886;2023-11-21T04:03:20;67.85;;;51.55;;
34405;SDS011;20658;45.630;8.886;2023-11-21T04:05:53;69.03;;;52.65;;
34405;SDS011;20658;45.630;8.886;2023-11-21T04:08:41;69.03;;;51.83;;
34405;SDS011;20658;45.630;8.886;2023-11-21T04:11:16;79.03;;;52.72;;
34405;SDS011;20658;45.630;8.886;2023-11-21T04:13:50;69.75;;;52.08;;
34405;SDS011;20658;45.630;8.886;2023-11-21T04:16:23;71.15;;;53.97;;
34405;SDS011;20658;45.630;8.886;2023-11-21T04:18:56;72.50;;;53.70;;
34405;SDS011;20658;45.630;8.886;2023-11-21T04:21:30;66.25;;;49.42;;
34405;SDS011;20658;45.630;8.886;2023-11-21T04:24:05;66.80;;;50.17;;
34405;SDS011;20658;45.630;8.886;2023-11-21T04:26:40;73.35;;;52.55;;
34405;SDS011;20658;45.630;8.886;2023-11-21T04:29:14;68.13;;;51.70;;
34405;SDS011;20658;45.630;8.886;2023-11-21T04:31:47;69.90;;;52.42;;
34405;SDS011;20658;45.630;8.886;2023-11-21T04:34:21;74.82;;;52.05;;
34405;SDS011;20658;45.630;8.886;2023-11-21T04:36:54;69.07;;;52.92;;
34405;SDS011;20658;45.630;8.886;2023-11-21T04:39:27;65.93;;;53.25;;
34405;SDS011;20658;45.630;8.886;2023-11-21T04:42:02;73.45;;;56.38;;
34405;SDS011;20658;45.630;8.886;2023-11-21T04:44:36;72.72;;;54.40;;
34405;SDS011;20658;45.630;8.886;2023-11-21T04:47:12;73.72;;;55.00;;
34405;SDS011;20658;45.630;8.886;2023-11-21T04:49:45;74.40;;;57.05;;
34405;SDS011;20658;45.630;8.886;2023-11-21T04:52:19;81.75;;;59.97;;
34405;SDS011;20658;45.630;8.886;2023-11-21T04:54:52;80.47;;;60.45;;
34405;SDS011;20658;45.630;8.886;2023-11-21T04:57:30;72.22;;;57.08;;
34405;SDS011;20658;45.630;8.886;2023-11-21T05:00:03;81.25;;;59.42;;
34405;SDS011;20658;45.630;8.886;2023-11-21T05:02:39;74.28;;;58.97;;
34405;SDS011;20658;45.630;8.886;2023-11-21T05:05:13;83.03;;;62.47;;
34405;SDS011;20658;45.630;8.886;2023-11-21T05:07:46;76.03;;;58.95;;
34405;SDS011;20658;45.630;8.886;2023-11-21T05:10:20;81.63;;;62.75;;
34405;SDS011;20658;45.630;8.886;2023-11-21T05:12:50;84.82;;;62.65;;
34405;SDS011;20658;45.630;8.886;2023-11-21T05:15:23;80.57;;;63.45;;
34405;SDS011;20658;45.630;8.886;2023-11-21T05:17:58;76.13;;;62.17;;
34405;SDS011;20658;45.630;8.886;2023-11-21T05:20:27;78.93;;;60.35;;
34405;SDS011;20658;45.630;8.886;2023-11-21T05:22:56;80.38;;;63.63;;
34405;SDS011;20658;45.630;8.886;2023-11-21T05:25:30;78.93;;;58.45;;
34405;SDS011;20658;45.630;8.886;2023-11-21T05:28:05;73.32;;;59.95;;
34405;SDS011;20658;45.630;8.886;2023-11-21T05:30:38;77.90;;;57.97;;
34405;SDS011;20658;45.630;8.886;2023-11-21T05:33:07;80.43;;;61.00;;
34405;SDS011;20658;45.630;8.886;2023-11-21T05:35:36;77.55;;;59.97;;
34405;SDS011;20658;45.630;8.886;2023-11-21T05:38:09;75.28;;;57.17;;
34405;SDS011;20658;45.630;8.886;2023-11-21T05:40:43;76.22;;;57.47;;
34405;SDS011;20658;45.630;8.886;2023-11-21T05:43:17;71.30;;;57.28;;
34405;SDS011;20658;45.630;8.886;2023-11-21T05:45:51;81.88;;;60.40;;
34405;SDS011;20658;45.630;8.886;2023-11-21T05:48:24;69.88;;;56.22;;
34405;SDS011;20658;45.630;8.886;2023-11-21T05:50:58;72.40;;;57.15;;
34405;SDS011;20658;45.630;8.886;2023-11-21T05:53:33;72.90;;;52.47;;
34405;SDS011;20658;45.630;8.886;2023-11-21T05:56:07;69.60;;;51.30;;
34405;SDS011;20658;45.630;8.886;2023-11-21T05:58:42;65.13;;;52.92;;
34405;SDS011;20658;45.630;8.886;2023-11-21T06:01:10;65.60;;;53.90;;
34405;SDS011;20658;45.630;8.886;2023-11-21T06:03:44;68.88;;;55.13;;
34405;SDS011;20658;45.630;8.886;2023-11-21T06:06:18;75.80;;;57.00;;
34405;SDS011;20658;45.630;8.886;2023-11-21T06:08:53;70.60;;;55.22;;
34405;SDS011;20658;45.630;8.886;2023-11-21T06:11:26;73.82;;;54.08;;
34405;SDS011;20658;45.630;8.886;2023-11-21T06:13:57;68.15;;;54.28;;
34405;SDS011;20658;45.630;8.886;2023-11-21T06:16:30;72.63;;;54.25;;
34405;SDS011;20658;45.630;8.886;2023-11-21T06:19:03;69.93;;;55.55;;
34405;SDS011;20658;45.630;8.886;2023-11-21T06:21:37;80.25;;;55.47;;
34405;SDS011;20658;45.630;8.886;2023-11-21T06:24:11;85.50;;;57.20;;
34405;SDS011;20658;45.630;8.886;2023-11-21T06:26:44;74.22;;;57.25;;
34405;SDS011;20658;45.630;8.886;2023-11-21T06:29:21;75.30;;;57.58;;
34405;SDS011;20658;45.630;8.886;2023-11-21T06:31:54;74.75;;;60.38;;
34405;SDS011;20658;45.630;8.886;2023-11-21T06:34:27;83.07;;;62.28;;
34405;SDS011;20658;45.630;8.886;2023-11-21T06:37:01;75.50;;;63.83;;
34405;SDS011;20658;45.630;8.886;2023-11-21T06:39:29;80.97;;;67.15;;
34405;SDS011;20658;45.630;8.886;2023-11-21T06:42:03;79.63;;;65.38;;
34405;SDS011;20658;45.630;8.886;2023-11-21T06:44:39;84.07;;;63.35;;
34405;SDS011;20658;45.630;8.886;2023-11-21T06:47:12;79.97;;;64.10;;
34405;SDS011;20658;45.630;8.886;2023-11-21T06:49:42;87.78;;;66.60;;
34405;SDS011;20658;45.630;8.886;2023-11-21T06:52:14;90.05;;;73.25;;
34405;SDS011;20658;45.630;8.886;2023-11-21T06:54:48;90.03;;;70.45;;
34405;SDS011;20658;45.630;8.886;2023-11-21T06:57:22;88.65;;;68.70;;
34405;SDS011;20658;45.630;8.886;2023-11-21T06:59:57;92.65;;;73.43;;
34405;SDS011;20658;45.630;8.886;2023-11-21T07:02:30;94.80;;;74.57;;
34405;SDS011;20658;45.630;8.886;2023-11-21T07:05:04;93.20;;;74.68;;
34405;SDS011;20658;45.630;8.886;2023-11-21T07:07:38;97.32;;;76.55;;
34405;SDS011;20658;45.630;8.886;2023-11-21T07:10:11;93.90;;;72.32;;
34405;SDS011;20658;45.630;8.886;2023-11-21T07:12:45;91.78;;;70.57;;
34405;SDS011;20658;45.630;8.886;2023-11-21T07:15:20;90.60;;;73.07;;
34405;SDS011;20658;45.630;8.886;2023-11-21T07:17:53;87.00;;;69.47;;
34405;SDS011;20658;45.630;8.886;2023-11-21T07:20:27;81.57;;;63.80;;
34405;SDS011;20658;45.630;8.886;2023-11-21T07:23:01;73.60;;;57.95;;
34405;SDS011;20658;45.630;8.886;2023-11-21T07:25:35;74.43;;;56.28;;
34405;SDS011;20658;45.630;8.886;2023-11-21T07:28:08;75.20;;;54.58;;
34405;SDS011;20658;45.630;8.886;2023-11-21T07:30:43;69.15;;;51.78;;
34405;SDS011;20658;45.630;8.886;2023-11-21T07:33:16;71.60;;;52.22;;
34405;SDS011;20658;45.630;8.886;2023-11-21T07:35:50;68.65;;;55.15;;
34405;SDS011;20658;45.630;8.886;2023-11-21T07:38:23;66.35;;;52.00;;
34405;SDS011;20658;45.630;8.886;2023-11-21T07:40:56;72.25;;;51.13;;
34405;SDS011;20658;45.630;8.886;2023-11-21T07:43:32;73.47;;;52.22;;
34405;SDS011;20658;45.630;8.886;2023-11-21T07:46:08;67.90;;;51.83;;
34405;SDS011;20658;45.630;8.886;2023-11-21T07:48:41;68.78;;;51.92;;
34405;SDS011;20658;45.630;8.886;2023-11-21T07:51:10;72.28;;;50.80;;
34405;SDS011;20658;45.630;8.886;2023-11-21T07:53:44;66.45;;;51.50;;
34405;SDS011;20658;45.630;8.886;2023-11-21T07:56:18;60.50;;;47.08;;
34405;SDS011;20658;45.630;8.886;2023-11-21T07:58:51;66.75;;;49.90;;
34405;SDS011;20658;45.630;8.886;2023-11-21T08:01:26;70.75;;;52.97;;
34405;SDS011;20658;45.630;8.886;2023-11-21T08:03:55;79.68;;;52.70;;
34405;SDS011;20658;45.630;8.886;2023-11-21T08:06:28;70.20;;;53.20;;
34405;SDS011;20658;45.630;8.886;2023-11-21T08:09:02;65.47;;;50.05;;
34405;SDS011;20658;45.630;8.886;2023-11-21T08:11:35;65.00;;;50.03;;
34405;SDS011;20658;45.630;8.886;2023-11-21T08:14:10;76.85;;;48.83;;
34405;SDS011;20658;45.630;8.886;2023-11-21T08:16:45;62.10;;;43.20;;
34405;SDS011;20658;45.630;8.886;2023-11-21T08:19:13;60.38;;;43.83;;
34405;SDS011;20658;45.630;8.886;2023-11-21T08:21:47;55.42;;;41.22;;
34405;SDS011;20658;45.630;8.886;2023-11-21T08:24:21;60.33;;;41.42;;
34405;SDS011;20658;45.630;8.886;2023-11-21T08:26:49;60.60;;;40.20;;
34405;SDS011;20658;45.630;8.886;2023-11-21T08:29:23;56.83;;;40.63;;
34405;SDS011;20658;45.630;8.886;2023-11-21T08:31:58;60.70;;;43.75;;
34405;SDS011;20658;45.630;8.886;2023-11-21T08:34:26;56.10;;;41.53;;
34405;SDS011;20658;45.630;8.886;2023-11-21T08:37:00;56.53;;;41.92;;
34405;SDS011;20658;45.630;8.886;2023-11-21T08:39:33;63.63;;;43.20;;
34405;SDS011;20658;45.630;8.886;2023-11-21T08:42:08;53.70;;;40.22;;
34405;SDS011;20658;45.630;8.886;2023-11-21T08:44:42;53.47;;;39.08;;
34405;SDS011;20658;45.630;8.886;2023-11-21T08:47:11;52.72;;;37.33;;
34405;SDS011;20658;45.630;8.886;2023-11-21T08:49:40;50.97;;;34.25;;
34405;SDS011;20658;45.630;8.886;2023-11-21T08:52:13;48.45;;;35.33;;
34405;SDS011;20658;45.630;8.886;2023-11-21T08:54:48;53.35;;;35.83;;
34405;SDS011;20658;45.630;8.886;2023-11-21T08:57:27;49.15;;;34.90;;
34405;SDS011;20658;45.630;8.886;2023-11-21T09:00:01;50.88;;;34.47;;
34405;SDS011;20658;45.630;8.886;2023-11-21T09:02:38;45.60;;;33.55;;
34405;SDS011;20658;45.630;8.886;2023-11-21T09:05:13;43.42;;;32.63;;
34405;SDS011;20658;45.630;8.886;2023-11-21T09:07:48;47.63;;;32.53;;
34405;SDS011;20658;45.630;8.886;2023-11-21T09:10:21;47.58;;;32.95;;
34405;SDS011;20658;45.630;8.886;2023-11-21T09:12:56;46.15;;;33.40;;
34405;SDS011;20658;45.630;8.886;2023-11-21T09:15:25;44.50;;;33.53;;
34405;SDS011;20658;45.630;8.886;2023-11-21T09:18:00;55.55;;;35.92;;
34405;SDS011;20658;45.630;8.886;2023-11-21T09:20:33;49.33;;;34.45;;
34405;SDS011;20658;45.630;8.886;2023-11-21T09:23:07;44.92;;;32.30;;
34405;SDS011;20658;45.630;8.886;2023-11-21T09:25:40;51.15;;;33.83;;
34405;SDS011;20658;45.630;8.886;2023-11-21T09:28:17;45.67;;;32.40;;
34405;SDS011;20658;45.630;8.886;2023-11-21T09:30:45;45.80;;;33.42;;
34405;SDS011;20658;45.630;8.886;2023-11-21T09:33:21;47.58;;;34.65;;
34405;SDS011;20658;45.630;8.886;2023-11-21T09:35:56;46.05;;;32.15;;
34405;SDS011;20658;45.630;8.886;2023-11-21T09:38:29;47.85;;;34.10;;
34405;SDS011;20658;45.630;8.886;2023-11-21T09:41:03;50.80;;;34.08;;
34405;SDS011;20658;45.630;8.886;2023-11-21T09:43:39;52.25;;;33.22;;
34405;SDS011;20658;45.630;8.886;2023-11-21T09:46:12;46.90;;;33.97;;
34405;SDS011;20658;45.630;8.886;2023-11-21T09:48:52;50.55;;;32.92;;
34405;SDS011;20658;45.630;8.886;2023-11-21T09:51:27;49.67;;;34.45;;
34405;SDS011;20658;45.630;8.886;2023-11-21T09:54:04;44.15;;;31.10;;
34405;SDS011;20658;45.630;8.886;2023-11-21T09:56:40;45.67;;;31.30;;
34405;SDS011;20658;45.630;8.886;2023-11-21T09:59:15;47.13;;;32.97;;
34405;SDS011;20658;45.630;8.886;2023-11-21T10:01:48;48.47;;;33.00;;
34405;SDS011;20658;45.630;8.886;2023-11-21T10:04:18;50.22;;;33.60;;
34405;SDS011;20658;45.630;8.886;2023-11-21T10:06:52;48.67;;;30.70;;
34405;SDS011;20658;45.630;8.886;2023-11-21T10:09:21;45.40;;;31.13;;
34405;SDS011;20658;45.630;8.886;2023-11-21T10:11:53;47.58;;;30.88;;
34405;SDS011;20658;45.630;8.886;2023-11-21T10:14:28;50.83;;;32.78;;
34405;SDS011;20658;45.630;8.886;2023-11-21T10:16:57;48.42;;;31.55;;
34405;SDS011;20658;45.630;8.886;2023-11-21T10:19:33;40.42;;;30.77;;
34405;SDS011;20658;45.630;8.886;2023-11-21T10:22:08;44.65;;;29.23;;
34405;SDS011;20658;45.630;8.886;2023-11-21T10:24:36;46.53;;;29.90;;
34405;SDS011;20658;45.630;8.886;2023-11-21T10:27:05;41.00;;;29.17;;
34405;SDS011;20658;45.630;8.886;2023-11-21T10:29:38;40.20;;;28.85;;
34405;SDS011;20658;45.630;8.886;2023-11-21T10:32:08;45.50;;;30.05;;
34405;SDS011;20658;45.630;8.886;2023-11-21T10:34:55;41.45;;;27.88;;
34405;SDS011;20658;45.630;8.886;2023-11-21T10:37:29;48.25;;;29.92;;
34405;SDS011;20658;45.630;8.886;2023-11-21T10:40:02;40.72;;;30.83;;
34405;SDS011;20658;45.630;8.886;2023-11-21T10:42:32;44.75;;;29.55;;
34405;SDS011;20658;45.630;8.886;2023-11-21T10:45:00;45.03;;;28.80;;
34405;SDS011;20658;45.630;8.886;2023-11-21T10:47:35;43.22;;;28.88;;
34405;SDS011;20658;45.630;8.886;2023-11-21T10:50:10;39.45;;;28.60;;
34405;SDS011;20658;45.630;8.886;2023-11-21T10:52:39;38.58;;;27.00;;
34405;SDS011;20658;45.630;8.886;2023-11-21T10:55:17;39.42;;;26.85;;
34405;SDS011;20658;45.630;8.886;2023-11-21T10:57:53;42.67;;;26.38;;
34405;SDS011;20658;45.630;8.886;2023-11-21T11:00:22;37.97;;;27.27;;
34405;SDS011;20658;45.630;8.886;2023-11-21T11:02:57;41.05;;;26.70;;
34405;SDS011;20658;45.630;8.886;2023-11-21T11:05:33;45.47;;;27.38;;
34405;SDS011;20658;45.630;8.886;2023-11-21T11:08:08;41.50;;;29.02;;
34405;SDS011;20658;45.630;8.886;2023-11-21T11:10:39;40.13;;;27.88;;
34405;SDS011;20658;45.630;8.886;2023-11-21T11:13:08;43.67;;;26.70;;
34405;SDS011;20658;45.630;8.886;2023-11-21T11:15:41;38.40;;;27.17;;
34405;SDS011;20658;45.630;8.886;2023-11-21T11:18:16;39.63;;;25.48;;
34405;SDS011;20658;45.630;8.886;2023-11-21T11:20:48;39.50;;;26.95;;
34405;SDS011;20658;45.630;8.886;2023-11-21T11:23:27;43.85;;;27.35;;
34405;SDS011;20658;45.630;8.886;2023-11-21T11:26:17;38.28;;;25.55;;
34405;SDS011;20658;45.630;8.886;2023-11-21T11:29:01;38.40;;;26.88;;
34405;SDS011;20658;45.630;8.886;2023-11-21T11:31:47;40.88;;;26.20;;
34405;SDS011;20658;45.630;8.886;2023-11-21T11:34:29;43.42;;;27.35;;
34405;SDS011;20658;45.630;8.886;2023-11-21T11:37:06;41.50;;;26.27;;
34405;SDS011;20658;45.630;8.886;2023-11-21T11:39:41;35.50;;;25.33;;
34405;SDS011;20658;45.630;8.886;2023-11-21T11:42:17;34.88;;;24.35;;
34405;SDS011;20658;45.630;8.886;2023-11-21T11:44:51;38.78;;;25.20;;
34405;SDS011;20658;45.630;8.886;2023-11-21T11:47:27;32.20;;;22.20;;
34405;SDS011;20658;45.630;8.886;2023-11-21T11:50:05;30.48;;;22.45;;
34405;SDS011;20658;45.630;8.886;2023-11-21T11:52:44;35.22;;;24.35;;
34405;SDS011;20658;45.630;8.886;2023-11-21T11:55:13;31.27;;;22.60;;
34405;SDS011;20658;45.630;8.886;2023-11-21T11:57:50;36.28;;;25.83;;
34405;SDS011;20658;45.630;8.886;2023-11-21T12:00:22;41.40;;;29.63;;
34405;SDS011;20658;45.630;8.886;2023-11-21T12:05:38;39.35;;;25.98;;
34405;SDS011;20658;45.630;8.886;2023-11-21T12:08:13;40.22;;;29.17;;
34405;SDS011;20658;45.630;8.886;2023-11-21T12:10:48;49.10;;;31.40;;
34405;SDS011;20658;45.630;8.886;2023-11-21T12:13:25;45.50;;;32.60;;
34405;SDS011;20658;45.630;8.886;2023-11-21T12:16:01;47.15;;;32.25;;
34405;SDS011;20658;45.630;8.886;2023-11-21T12:18:34;50.80;;;31.55;;
34405;SDS011;20658;45.630;8.886;2023-11-21T12:21:04;50.47;;;34.13;;
34405;SDS011;20658;45.630;8.886;2023-11-21T12:23:37;49.83;;;35.25;;
34405;SDS011;20658;45.630;8.886;2023-11-21T12:26:11;42.55;;;31.10;;
34405;SDS011;20658;45.630;8.886;2023-11-21T12:28:48;50.63;;;34.45;;
34405;SDS011;20658;45.630;8.886;2023-11-21T12:31:27;49.13;;;33.45;;
34405;SDS011;20658;45.630;8.886;2023-11-21T12:34:02;51.75;;;34.03;;
34405;SDS011;20658;45.630;8.886;2023-11-21T12:36:35;51.58;;;34.03;;
34405;SDS011;20658;45.630;8.886;2023-11-21T12:39:06;47.70;;;33.55;;
34405;SDS011;20658;45.630;8.886;2023-11-21T12:41:40;53.80;;;35.20;;
34405;SDS011;20658;45.630;8.886;2023-11-21T12:44:14;51.15;;;35.13;;
34405;SDS011;20658;45.630;8.886;2023-11-21T12:46:43;49.13;;;34.03;;
34405;SDS011;20658;45.630;8.886;2023-11-21T12:49:15;49.72;;;34.78;;
34405;SDS011;20658;45.630;8.886;2023-11-21T12:51:49;54.70;;;33.83;;
34405;SDS011;20658;45.630;8.886;2023-11-21T12:54:26;50.67;;;34.53;;
34405;SDS011;20658;45.630;8.886;2023-11-21T12:57:01;48.50;;;34.65;;
34405;SDS011;20658;45.630;8.886;2023-11-21T12:59:38;56.45;;;35.13;;
34405;SDS011;20658;45.630;8.886;2023-11-21T13:02:13;45.15;;;33.03;;
34405;SDS011;20658;45.630;8.886;2023-11-21T13:04:51;50.30;;;34.05;;
34405;SDS011;20658;45.630;8.886;2023-11-21T13:07:20;53.13;;;34.47;;
34405;SDS011;20658;45.630;8.886;2023-11-21T13:09:55;52.85;;;35.83;;
34405;SDS011;20658;45.630;8.886;2023-11-21T13:12:29;50.47;;;35.50;;
34405;SDS011;20658;45.630;8.886;2023-11-21T13:14:59;51.70;;;35.05;;
34405;SDS011;20658;45.630;8.886;2023-11-21T13:17:38;52.80;;;35.97;;
34405;SDS011;20658;45.630;8.886;2023-11-21T13:20:11;55.03;;;37.65;;
34405;SDS011;20658;45.630;8.886;2023-11-21T13:22:46;57.58;;;37.95;;
34405;SDS011;20658;45.630;8.886;2023-11-21T13:25:22;56.70;;;40.45;;
34405;SDS011;20658;45.630;8.886;2023-11-21T13:27:53;54.45;;;38.72;;
34405;SDS011;20658;45.630;8.886;2023-11-21T13:30:27;54.30;;;37.80;;
34405;SDS011;20658;45.630;8.886;2023-11-21T13:33:05;57.95;;;39.63;;
34405;SDS011;20658;45.630;8.886;2023-11-21T13:35:39;68.55;;;40.67;;
34405;SDS011;20658;45.630;8.886;2023-11-21T13:38:15;61.10;;;41.55;;
34405;SDS011;20658;45.630;8.886;2023-11-21T13:40:55;61.00;;;40.67;;
34405;SDS011;20658;45.630;8.886;2023-11-21T13:43:25;57.28;;;40.67;;
34405;SDS011;20658;45.630;8.886;2023-11-21T13:45:55;56.88;;;39.63;;
34405;SDS011;20658;45.630;8.886;2023-11-21T13:48:32;58.75;;;39.47;;
34405;SDS011;20658;45.630;8.886;2023-11-21T13:51:08;55.53;;;39.63;;
34405;SDS011;20658;45.630;8.886;2023-11-21T13:53:48;51.35;;;37.20;;
34405;SDS011;20658;45.630;8.886;2023-11-21T13:56:20;67.18;;;40.58;;
34405;SDS011;20658;45.630;8.886;2023-11-21T13:58:55;54.28;;;38.78;;
34405;SDS011;20658;45.630;8.886;2023-11-21T14:01:35;54.28;;;37.72;;
34405;SDS011;20658;45.630;8.886;2023-11-21T14:04:25;54.10;;;38.50;;
34405;SDS011;20658;45.630;8.886;2023-11-21T14:07:23;55.95;;;37.25;;
34405;SDS011;20658;45.630;8.886;2023-11-21T14:10:01;58.42;;;38.17;;
34405;SDS011;20658;45.630;8.886;2023-11-21T14:12:37;58.17;;;38.53;;
34405;SDS011;20658;45.630;8.886;2023-11-21T14:15:14;49.45;;;38.33;;
34405;SDS011;20658;45.630;8.886;2023-11-21T14:17:50;61.25;;;39.38;;
34405;SDS011;20658;45.630;8.886;2023-11-21T14:20:23;63.20;;;41.30;;
34405;SDS011;20658;45.630;8.886;2023-11-21T14:22:56;62.60;;;41.78;;
34405;SDS011;20658;45.630;8.886;2023-11-21T14:25:30;57.40;;;42.95;;
34405;SDS011;20658;45.630;8.886;2023-11-21T14:28:05;69.55;;;41.60;;
34405;SDS011;20658;45.630;8.886;2023-11-21T14:30:39;59.15;;;40.88;;
34405;SDS011;20658;45.630;8.886;2023-11-21T14:33:08;62.85;;;40.78;;
34405;SDS011;20658;45.630;8.886;2023-11-21T14:35:43;63.67;;;42.67;;
34405;SDS011;20658;45.630;8.886;2023-11-21T14:38:17;61.78;;;43.17;;
34405;SDS011;20658;45.630;8.886;2023-11-21T14:40:50;59.95;;;41.72;;
34405;SDS011;20658;45.630;8.886;2023-11-21T14:43:25;60.75;;;41.63;;
34405;SDS011;20658;45.630;8.886;2023-11-21T14:46:05;74.22;;;46.40;;
34405;SDS011;20658;45.630;8.886;2023-11-21T14:48:41;62.72;;;43.83;;
34405;SDS011;20658;45.630;8.886;2023-11-21T14:51:09;61.72;;;45.17;;
34405;SDS011;20658;45.630;8.886;2023-11-21T14:53:59;60.72;;;43.75;;
34405;SDS011;20658;45.630;8.886;2023-11-21T14:56:32;63.00;;;43.85;;
34405;SDS011;20658;45.630;8.886;2023-11-21T14:59:07;62.83;;;44.35;;
34405;SDS011;20658;45.630;8.886;2023-11-21T15:01:47;60.85;;;44.25;;